sensor_id;sensor_type;location;lat;lon;timestamp;temperature;humidity
46608;DHT22;32330;51.936;7.184;2022-09-16T00:00:57;12.70;99.90
46608;DHT22;32330;51.936;7.184;2022-09-16T00:03:23;12.70;99.90
46608;DHT22;32330;51.936;7.184;2022-09-16T00:05:51;12.70;99.90
46608;DHT22;32330;51.936;7.184;2022-09-16T00:08:18;12.70;99.90
46608;DHT22;32330;51.936;7.184;2022-09-16T00:10:45;12.70;99.90
46608;DHT22;32330;51.936;7.184;2022-09-16T00:13:12;12.70;99.90
46608;DHT22;32330;51.936;7.184;2022-09-16T00:15:45;12.80;99.90
46608;DHT22;32330;51.936;7.184;2022-09-16T00:18:10;12.80;99.90
46608;DHT22;32330;51.936;7.184;2022-09-16T00:20:41;12.70;99.90
46608;DHT22;32330;51.936;7.184;2022-09-16T00:23:06;12.70;99.90
46608;DHT22;32330;51.936;7.184;2022-09-16T00:25:32;12.60;99.90
46608;DHT22;32330;51.936;7.184;2022-09-16T00:27:57;12.60;99.90
46608;DHT22;32330;51.936;7.184;2022-09-16T00:30:23;12.60;99.90
46608;DHT22;32330;51.936;7.184;2022-09-16T00:32:48;12.70;99.90
46608;DHT22;32330;51.936;7.184;2022-09-16T00:35:14;12.70;99.90
46608;DHT22;32330;51.936;7.184;2022-09-16T00:37:39;12.70;99.90
46608;DHT22;32330;51.936;7.184;2022-09-16T00:40:05;12.70;99.90
46608;DHT22;32330;51.936;7.184;2022-09-16T00:42:36;12.70;99.90
46608;DHT22;32330;51.936;7.184;2022-09-16T00:45:05;12.60;99.90
46608;DHT22;32330;51.936;7.184;2022-09-16T00:48:02;12.60;99.90
46608;DHT22;32330;51.936;7.184;2022-09-16T00:52:58;12.60;99.90
46608;DHT22;32330;51.936;7.184;2022-09-16T00:55:27;12.60;99.90
46608;DHT22;32330;51.936;7.184;2022-09-16T00:57:58;12.60;99.90
46608;DHT22;32330;51.936;7.184;2022-09-16T01:00:27;12.50;99.90
46608;DHT22;32330;51.936;7.184;2022-09-16T01:02:52;12.50;99.90
46608;DHT22;32330;51.936;7.184;2022-09-16T01:05:21;12.50;99.90
46608;DHT22;32330;51.936;7.184;2022-09-16T01:07:50;12.50;99.90
46608;DHT22;32330;51.936;7.184;2022-09-16T01:10:22;12.50;99.90
46608;DHT22;32330;51.936;7.184;2022-09-16T01:12:53;12.40;99.90
46608;DHT22;32330;51.936;7.184;2022-09-16T01:15:21;12.40;99.90
46608;DHT22;32330;51.936;7.184;2022-09-16T01:18:06;12.50;99.90
46608;DHT22;32330;51.936;7.184;2022-09-16T01:20:58;12.50;99.90
46608;DHT22;32330;51.936;7.184;2022-09-16T01:35:38;12.50;99.90
46608;DHT22;32330;51.936;7.184;2022-09-16T01:40:52;12.50;99.90
46608;DHT22;32330;51.936;7.184;2022-09-16T01:46:34;12.50;99.90
46608;DHT22;32330;51.936;7.184;2022-09-16T01:49:12;12.50;99.90
46608;DHT22;32330;51.936;7.184;2022-09-16T01:55:06;12.50;99.90
46608;DHT22;32330;51.936;7.184;2022-09-16T01:57:52;12.50;99.90
46608;DHT22;32330;51.936;7.184;2022-09-16T02:00:20;12.50;99.90
46608;DHT22;32330;51.936;7.184;2022-09-16T02:08:11;12.40;99.90
46608;DHT22;32330;51.936;7.184;2022-09-16T02:10:48;12.40;99.90
46608;DHT22;32330;51.936;7.184;2022-09-16T02:13:27;12.40;99.90
46608;DHT22;32330;51.936;7.184;2022-09-16T02:16:00;12.40;99.90
46608;DHT22;32330;51.936;7.184;2022-09-16T02:18:35;12.40;99.90
46608;DHT22;32330;51.936;7.184;2022-09-16T02:21:04;12.40;99.90
46608;DHT22;32330;51.936;7.184;2022-09-16T02:23:40;12.40;99.90
46608;DHT22;32330;51.936;7.184;2022-09-16T02:26:09;12.40;99.90
46608;DHT22;32330;51.936;7.184;2022-09-16T02:28:39;12.40;99.90
46608;DHT22;32330;51.936;7.184;2022-09-16T02:31:07;12.40;99.90
46608;DHT22;32330;51.936;7.184;2022-09-16T02:33:45;12.40;99.90
46608;DHT22;32330;51.936;7.184;2022-09-16T02:36:20;12.30;99.90
46608;DHT22;32330;51.936;7.184;2022-09-16T02:38:50;12.30;99.90
46608;DHT22;32330;51.936;7.184;2022-09-16T02:41:17;12.30;99.90
46608;DHT22;32330;51.936;7.184;2022-09-16T02:43:44;12.30;99.90
46608;DHT22;32330;51.936;7.184;2022-09-16T02:54:43;12.30;99.90
46608;DHT22;32330;51.936;7.184;2022-09-16T02:57:12;12.20;99.90
46608;DHT22;32330;51.936;7.184;2022-09-16T02:59:38;12.20;99.90
46608;DHT22;32330;51.936;7.184;2022-09-16T03:02:04;12.20;99.90
46608;DHT22;32330;51.936;7.184;2022-09-16T03:04:30;12.20;99.90
46608;DHT22;32330;51.936;7.184;2022-09-16T03:06:56;12.20;99.90
46608;DHT22;32330;51.936;7.184;2022-09-16T03:09:25;12.20;99.90
46608;DHT22;32330;51.936;7.184;2022-09-16T03:14:42;12.20;99.90
46608;DHT22;32330;51.936;7.184;2022-09-16T03:17:24;12.20;99.90
46608;DHT22;32330;51.936;7.184;2022-09-16T03:28:01;12.20;99.90
46608;DHT22;32330;51.936;7.184;2022-09-16T03:31:00;12.20;99.90
46608;DHT22;32330;51.936;7.184;2022-09-16T03:33:56;12.20;99.90
46608;DHT22;32330;51.936;7.184;2022-09-16T03:36:28;12.30;99.90
46608;DHT22;32330;51.936;7.184;2022-09-16T03:38:59;12.30;99.90
46608;DHT22;32330;51.936;7.184;2022-09-16T03:41:28;12.30;99.90
46608;DHT22;32330;51.936;7.184;2022-09-16T03:43:55;12.30;99.90
46608;DHT22;32330;51.936;7.184;2022-09-16T03:46:21;12.30;99.90
46608;DHT22;32330;51.936;7.184;2022-09-16T03:48:47;12.20;99.90
46608;DHT22;32330;51.936;7.184;2022-09-16T03:51:13;12.30;99.90
46608;DHT22;32330;51.936;7.184;2022-09-16T03:53:39;12.20;99.90
46608;DHT22;32330;51.936;7.184;2022-09-16T03:56:05;12.30;99.90
46608;DHT22;32330;51.936;7.184;2022-09-16T03:58:30;12.30;99.90
46608;DHT22;32330;51.936;7.184;2022-09-16T04:00:56;12.20;99.90
46608;DHT22;32330;51.936;7.184;2022-09-16T04:03:21;12.20;99.90
46608;DHT22;32330;51.936;7.184;2022-09-16T04:05:52;12.20;99.90
46608;DHT22;32330;51.936;7.184;2022-09-16T04:08:18;12.20;99.90
46608;DHT22;32330;51.936;7.184;2022-09-16T04:10:55;12.20;99.90
46608;DHT22;32330;51.936;7.184;2022-09-16T04:13:22;12.20;99.90
46608;DHT22;32330;51.936;7.184;2022-09-16T04:15:48;12.20;99.90
46608;DHT22;32330;51.936;7.184;2022-09-16T04:18:14;12.20;99.90
46608;DHT22;32330;51.936;7.184;2022-09-16T04:20:40;12.20;99.90
46608;DHT22;32330;51.936;7.184;2022-09-16T04:23:06;12.10;99.90
46608;DHT22;32330;51.936;7.184;2022-09-16T04:25:32;12.20;99.90
46608;DHT22;32330;51.936;7.184;2022-09-16T04:27:58;12.10;99.90
46608;DHT22;32330;51.936;7.184;2022-09-16T04:30:24;12.10;99.90
46608;DHT22;32330;51.936;7.184;2022-09-16T04:32:54;12.20;99.90
46608;DHT22;32330;51.936;7.184;2022-09-16T04:35:21;12.20;99.90
46608;DHT22;32330;51.936;7.184;2022-09-16T04:37:47;12.20;99.90
46608;DHT22;32330;51.936;7.184;2022-09-16T04:40:13;12.10;99.90
46608;DHT22;32330;51.936;7.184;2022-09-16T04:42:38;12.10;99.90
46608;DHT22;32330;51.936;7.184;2022-09-16T04:45:04;12.10;99.90
46608;DHT22;32330;51.936;7.184;2022-09-16T04:47:30;12.10;99.90
46608;DHT22;32330;51.936;7.184;2022-09-16T04:49:56;12.00;99.90
46608;DHT22;32330;51.936;7.184;2022-09-16T04:52:21;12.00;99.90
46608;DHT22;32330;51.936;7.184;2022-09-16T04:54:47;12.00;99.90
46608;DHT22;32330;51.936;7.184;2022-09-16T04:57:12;12.00;99.90
46608;DHT22;32330;51.936;7.184;2022-09-16T04:59:38;12.00;99.90
46608;DHT22;32330;51.936;7.184;2022-09-16T05:02:04;11.90;99.90
46608;DHT22;32330;51.936;7.184;2022-09-16T05:04:29;11.90;99.90
46608;DHT22;32330;51.936;7.184;2022-09-16T05:06:55;12.00;99.90
46608;DHT22;32330;51.936;7.184;2022-09-16T05:09:20;12.00;99.90
46608;DHT22;32330;51.936;7.184;2022-09-16T05:11:47;12.00;99.90
46608;DHT22;32330;51.936;7.184;2022-09-16T05:14:15;12.00;99.90
46608;DHT22;32330;51.936;7.184;2022-09-16T05:16:41;12.00;99.90
46608;DHT22;32330;51.936;7.184;2022-09-16T05:19:07;11.90;99.90
46608;DHT22;32330;51.936;7.184;2022-09-16T05:21:36;12.00;99.90
46608;DHT22;32330;51.936;7.184;2022-09-16T05:24:03;12.10;99.90
46608;DHT22;32330;51.936;7.184;2022-09-16T05:26:31;12.00;99.90
46608;DHT22;32330;51.936;7.184;2022-09-16T05:29:06;12.00;99.90
46608;DHT22;32330;51.936;7.184;2022-09-16T05:31:34;12.00;99.90
46608;DHT22;32330;51.936;7.184;2022-09-16T05:36:27;12.00;99.90
46608;DHT22;32330;51.936;7.184;2022-09-16T05:38:53;12.00;99.90
46608;DHT22;32330;51.936;7.184;2022-09-16T05:41:19;12.00;99.90
46608;DHT22;32330;51.936;7.184;2022-09-16T05:43:45;12.00;99.90
46608;DHT22;32330;51.936;7.184;2022-09-16T05:46:18;12.00;99.90
46608;DHT22;32330;51.936;7.184;2022-09-16T05:48:45;12.00;99.90
46608;DHT22;32330;51.936;7.184;2022-09-16T05:51:14;12.00;99.90
46608;DHT22;32330;51.936;7.184;2022-09-16T05:53:40;12.00;99.90
46608;DHT22;32330;51.936;7.184;2022-09-16T05:56:11;12.00;99.90
46608;DHT22;32330;51.936;7.184;2022-09-16T05:58:38;12.00;99.90
46608;DHT22;32330;51.936;7.184;2022-09-16T06:03:36;12.00;99.90
46608;DHT22;32330;51.936;7.184;2022-09-16T06:06:08;12.00;99.90
46608;DHT22;32330;51.936;7.184;2022-09-16T06:08:36;11.90;99.90
46608;DHT22;32330;51.936;7.184;2022-09-16T06:11:03;12.00;99.90
46608;DHT22;32330;51.936;7.184;2022-09-16T06:13:29;12.10;99.90
46608;DHT22;32330;51.936;7.184;2022-09-16T06:15:55;12.00;99.90
46608;DHT22;32330;51.936;7.184;2022-09-16T06:18:22;12.10;99.90
46608;DHT22;32330;51.936;7.184;2022-09-16T06:20:48;12.10;99.90
46608;DHT22;32330;51.936;7.184;2022-09-16T06:23:14;12.00;99.90
46608;DHT22;32330;51.936;7.184;2022-09-16T06:25:40;12.10;99.90
46608;DHT22;32330;51.936;7.184;2022-09-16T06:28:06;12.00;99.90
46608;DHT22;32330;51.936;7.184;2022-09-16T06:30:32;12.10;99.90
46608;DHT22;32330;51.936;7.184;2022-09-16T06:32:57;12.10;99.90
46608;DHT22;32330;51.936;7.184;2022-09-16T06:35:23;12.10;99.90
46608;DHT22;32330;51.936;7.184;2022-09-16T06:37:48;12.10;99.90
46608;DHT22;32330;51.936;7.184;2022-09-16T06:40:14;12.20;99.90
46608;DHT22;32330;51.936;7.184;2022-09-16T06:42:40;12.20;99.90
46608;DHT22;32330;51.936;7.184;2022-09-16T06:45:06;12.20;99.90
46608;DHT22;32330;51.936;7.184;2022-09-16T06:47:31;12.20;99.90
46608;DHT22;32330;51.936;7.184;2022-09-16T06:49:58;12.20;99.90
46608;DHT22;32330;51.936;7.184;2022-09-16T06:52:23;12.30;99.90
46608;DHT22;32330;51.936;7.184;2022-09-16T06:54:49;12.50;99.90
46608;DHT22;32330;51.936;7.184;2022-09-16T06:57:15;12.50;99.90
46608;DHT22;32330;51.936;7.184;2022-09-16T06:59:42;12.50;99.90
46608;DHT22;32330;51.936;7.184;2022-09-16T07:02:09;12.60;99.90
46608;DHT22;32330;51.936;7.184;2022-09-16T07:04:35;12.70;99.90
46608;DHT22;32330;51.936;7.184;2022-09-16T07:07:01;12.80;99.90
46608;DHT22;32330;51.936;7.184;2022-09-16T07:09:26;12.70;99.90
46608;DHT22;32330;51.936;7.184;2022-09-16T07:11:52;12.70;99.90
46608;DHT22;32330;51.936;7.184;2022-09-16T07:14:18;12.70;99.90
46608;DHT22;32330;51.936;7.184;2022-09-16T07:16:43;12.80;99.90
46608;DHT22;32330;51.936;7.184;2022-09-16T07:19:09;12.90;99.90
46608;DHT22;32330;51.936;7.184;2022-09-16T07:21:35;12.90;99.90
46608;DHT22;32330;51.936;7.184;2022-09-16T07:24:01;12.90;99.90
46608;DHT22;32330;51.936;7.184;2022-09-16T07:26:29;13.00;99.90
46608;DHT22;32330;51.936;7.184;2022-09-16T07:28:58;13.10;99.90
46608;DHT22;32330;51.936;7.184;2022-09-16T07:31:26;13.20;99.90
46608;DHT22;32330;51.936;7.184;2022-09-16T07:33:54;13.20;99.90
46608;DHT22;32330;51.936;7.184;2022-09-16T07:36:23;13.30;99.90
46608;DHT22;32330;51.936;7.184;2022-09-16T07:38:49;13.40;99.90
46608;DHT22;32330;51.936;7.184;2022-09-16T07:41:18;13.40;99.90
46608;DHT22;32330;51.936;7.184;2022-09-16T07:43:45;13.50;99.90
46608;DHT22;32330;51.936;7.184;2022-09-16T07:46:12;13.50;99.90
46608;DHT22;32330;51.936;7.184;2022-09-16T07:48:38;13.50;99.90
46608;DHT22;32330;51.936;7.184;2022-09-16T07:51:18;13.60;99.90
46608;DHT22;32330;51.936;7.184;2022-09-16T07:53:45;13.70;99.90
46608;DHT22;32330;51.936;7.184;2022-09-16T07:56:16;13.70;99.90
46608;DHT22;32330;51.936;7.184;2022-09-16T07:58:43;13.60;99.90
46608;DHT22;32330;51.936;7.184;2022-09-16T08:01:10;13.90;99.90
46608;DHT22;32330;51.936;7.184;2022-09-16T08:03:38;13.90;99.90
46608;DHT22;32330;51.936;7.184;2022-09-16T08:06:06;13.90;99.90
46608;DHT22;32330;51.936;7.184;2022-09-16T08:08:33;14.00;99.90
46608;DHT22;32330;51.936;7.184;2022-09-16T08:10:59;14.10;99.90
46608;DHT22;32330;51.936;7.184;2022-09-16T08:13:26;14.20;99.90
46608;DHT22;32330;51.936;7.184;2022-09-16T08:15:54;14.20;99.90
46608;DHT22;32330;51.936;7.184;2022-09-16T08:18:20;14.30;99.90
46608;DHT22;32330;51.936;7.184;2022-09-16T08:21:05;14.40;99.90
46608;DHT22;32330;51.936;7.184;2022-09-16T08:23:32;14.50;99.90
46608;DHT22;32330;51.936;7.184;2022-09-16T08:25:58;14.70;99.90
46608;DHT22;32330;51.936;7.184;2022-09-16T08:28:25;14.80;99.90
46608;DHT22;32330;51.936;7.184;2022-09-16T08:30:51;14.90;99.90
46608;DHT22;32330;51.936;7.184;2022-09-16T08:33:16;15.00;99.90
46608;DHT22;32330;51.936;7.184;2022-09-16T08:35:46;15.00;99.90
46608;DHT22;32330;51.936;7.184;2022-09-16T08:38:12;15.10;99.90
46608;DHT22;32330;51.936;7.184;2022-09-16T08:40:43;15.30;99.90
46608;DHT22;32330;51.936;7.184;2022-09-16T08:43:22;15.40;99.90
46608;DHT22;32330;51.936;7.184;2022-09-16T08:46:25;15.50;99.90
46608;DHT22;32330;51.936;7.184;2022-09-16T08:51:31;15.70;99.90
46608;DHT22;32330;51.936;7.184;2022-09-16T08:54:01;15.70;99.90
46608;DHT22;32330;51.936;7.184;2022-09-16T08:56:30;15.80;99.90
46608;DHT22;32330;51.936;7.184;2022-09-16T08:59:00;15.90;99.90
46608;DHT22;32330;51.936;7.184;2022-09-16T09:03:59;16.10;99.90
46608;DHT22;32330;51.936;7.184;2022-09-16T09:09:31;16.30;99.90
46608;DHT22;32330;51.936;7.184;2022-09-16T09:17:16;16.10;99.90
46608;DHT22;32330;51.936;7.184;2022-09-16T09:27:44;16.50;99.90
46608;DHT22;32330;51.936;7.184;2022-09-16T09:30:23;16.30;99.90
46608;DHT22;32330;51.936;7.184;2022-09-16T09:41:13;16.90;99.90
46608;DHT22;32330;51.936;7.184;2022-09-16T09:43:46;16.70;99.90
46608;DHT22;32330;51.936;7.184;2022-09-16T09:46:29;16.80;99.90
46608;DHT22;32330;51.936;7.184;2022-09-16T09:49:12;17.20;99.90
46608;DHT22;32330;51.936;7.184;2022-09-16T09:51:57;17.20;99.90
46608;DHT22;32330;51.936;7.184;2022-09-16T09:56:52;17.50;99.90
46608;DHT22;32330;51.936;7.184;2022-09-16T09:59:29;17.70;99.90
46608;DHT22;32330;51.936;7.184;2022-09-16T10:01:58;17.50;99.90
46608;DHT22;32330;51.936;7.184;2022-09-16T10:04:28;17.30;99.90
46608;DHT22;32330;51.936;7.184;2022-09-16T10:06:57;17.20;99.90
46608;DHT22;32330;51.936;7.184;2022-09-16T10:09:23;17.30;99.90
46608;DHT22;32330;51.936;7.184;2022-09-16T10:11:54;17.30;99.90
46608;DHT22;32330;51.936;7.184;2022-09-16T10:14:34;17.50;99.10
46608;DHT22;32330;51.936;7.184;2022-09-16T10:17:10;17.30;98.60
46608;DHT22;32330;51.936;7.184;2022-09-16T10:19:56;17.20;99.40
46608;DHT22;32330;51.936;7.184;2022-09-16T10:22:28;17.40;99.90
46608;DHT22;32330;51.936;7.184;2022-09-16T10:24:56;17.60;99.10
46608;DHT22;32330;51.936;7.184;2022-09-16T10:27:26;17.70;99.30
46608;DHT22;32330;51.936;7.184;2022-09-16T10:35:24;18.00;99.10
46608;DHT22;32330;51.936;7.184;2022-09-16T10:40:23;17.40;96.40
46608;DHT22;32330;51.936;7.184;2022-09-16T10:42:51;17.60;96.00
46608;DHT22;32330;51.936;7.184;2022-09-16T10:45:30;17.60;96.60
46608;DHT22;32330;51.936;7.184;2022-09-16T10:48:00;17.70;98.20
46608;DHT22;32330;51.936;7.184;2022-09-16T10:50:28;17.40;97.10
46608;DHT22;32330;51.936;7.184;2022-09-16T10:52:54;17.50;98.70
46608;DHT22;32330;51.936;7.184;2022-09-16T10:55:27;17.60;96.70
46608;DHT22;32330;51.936;7.184;2022-09-16T10:58:05;17.80;95.60
46608;DHT22;32330;51.936;7.184;2022-09-16T11:03:28;18.20;94.90
46608;DHT22;32330;51.936;7.184;2022-09-16T11:07:04;18.70;94.80
46608;DHT22;32330;51.936;7.184;2022-09-16T11:15:17;18.60;95.70
46608;DHT22;32330;51.936;7.184;2022-09-16T11:29:33;17.90;92.10
46608;DHT22;32330;51.936;7.184;2022-09-16T11:32:23;17.90;90.70
46608;DHT22;32330;51.936;7.184;2022-09-16T11:37:50;17.70;88.70
46608;DHT22;32330;51.936;7.184;2022-09-16T11:40:32;17.50;87.40
46608;DHT22;32330;51.936;7.184;2022-09-16T11:43:15;17.30;89.40
46608;DHT22;32330;51.936;7.184;2022-09-16T11:46:14;16.80;90.90
46608;DHT22;32330;51.936;7.184;2022-09-16T11:54:13;16.90;93.40
46608;DHT22;32330;51.936;7.184;2022-09-16T11:56:51;17.30;94.10
46608;DHT22;32330;51.936;7.184;2022-09-16T11:59:30;17.30;94.30
46608;DHT22;32330;51.936;7.184;2022-09-16T12:10:44;17.60;95.00
46608;DHT22;32330;51.936;7.184;2022-09-16T12:13:19;17.50;94.70
46608;DHT22;32330;51.936;7.184;2022-09-16T12:15:58;17.80;94.30
46608;DHT22;32330;51.936;7.184;2022-09-16T12:18:33;17.80;93.90
46608;DHT22;32330;51.936;7.184;2022-09-16T12:23:45;17.70;93.40
46608;DHT22;32330;51.936;7.184;2022-09-16T12:26:18;17.70;93.40
46608;DHT22;32330;51.936;7.184;2022-09-16T12:31:46;17.80;93.50
46608;DHT22;32330;51.936;7.184;2022-09-16T12:34:26;18.00;94.10
46608;DHT22;32330;51.936;7.184;2022-09-16T12:37:00;18.20;93.90
46608;DHT22;32330;51.936;7.184;2022-09-16T12:39:27;18.30;94.20
46608;DHT22;32330;51.936;7.184;2022-09-16T12:47:52;18.30;93.30
46608;DHT22;32330;51.936;7.184;2022-09-16T12:56:10;18.10;93.90
46608;DHT22;32330;51.936;7.184;2022-09-16T13:05:09;18.40;89.90
46608;DHT22;32330;51.936;7.184;2022-09-16T13:07:04;18.40;90.80
46608;DHT22;32330;51.936;7.184;2022-09-16T13:09:38;18.30;86.60
46608;DHT22;32330;51.936;7.184;2022-09-16T13:12:05;18.30;87.20
46608;DHT22;32330;51.936;7.184;2022-09-16T13:14:45;18.30;86.70
46608;DHT22;32330;51.936;7.184;2022-09-16T13:17:12;18.10;89.00
46608;DHT22;32330;51.936;7.184;2022-09-16T13:19:49;18.30;90.00
46608;DHT22;32330;51.936;7.184;2022-09-16T13:22:27;18.30;87.50
46608;DHT22;32330;51.936;7.184;2022-09-16T13:30:12;18.60;90.00
46608;DHT22;32330;51.936;7.184;2022-09-16T13:32:55;18.70;89.40
46608;DHT22;32330;51.936;7.184;2022-09-16T13:37:57;18.30;87.80
46608;DHT22;32330;51.936;7.184;2022-09-16T13:40:25;18.40;87.30
46608;DHT22;32330;51.936;7.184;2022-09-16T13:48:12;18.60;90.60
46608;DHT22;32330;51.936;7.184;2022-09-16T13:50:43;18.70;88.50
46608;DHT22;32330;51.936;7.184;2022-09-16T13:53:17;18.70;90.00
46608;DHT22;32330;51.936;7.184;2022-09-16T13:55:46;18.70;88.30
46608;DHT22;32330;51.936;7.184;2022-09-16T13:58:28;18.40;89.30
46608;DHT22;32330;51.936;7.184;2022-09-16T14:01:03;18.50;90.10
46608;DHT22;32330;51.936;7.184;2022-09-16T14:03:41;18.30;88.90
46608;DHT22;32330;51.936;7.184;2022-09-16T14:06:11;18.30;90.00
46608;DHT22;32330;51.936;7.184;2022-09-16T14:11:44;18.60;90.50
46608;DHT22;32330;51.936;7.184;2022-09-16T14:14:15;18.70;90.20
46608;DHT22;32330;51.936;7.184;2022-09-16T14:16:43;18.30;88.60
46608;DHT22;32330;51.936;7.184;2022-09-16T14:21:45;18.30;85.80
46608;DHT22;32330;51.936;7.184;2022-09-16T14:26:55;18.30;84.30
46608;DHT22;32330;51.936;7.184;2022-09-16T14:29:22;18.40;84.60
46608;DHT22;32330;51.936;7.184;2022-09-16T14:31:50;18.00;86.40
46608;DHT22;32330;51.936;7.184;2022-09-16T14:34:34;17.80;87.30
46608;DHT22;32330;51.936;7.184;2022-09-16T14:37:01;17.60;89.50
46608;DHT22;32330;51.936;7.184;2022-09-16T14:39:28;17.80;90.40
46608;DHT22;32330;51.936;7.184;2022-09-16T14:41:59;17.90;89.40
46608;DHT22;32330;51.936;7.184;2022-09-16T14:44:49;17.60;90.40
46608;DHT22;32330;51.936;7.184;2022-09-16T14:47:26;17.80;90.90
46608;DHT22;32330;51.936;7.184;2022-09-16T14:50:02;18.00;90.50
46608;DHT22;32330;51.936;7.184;2022-09-16T14:52:32;18.00;90.80
46608;DHT22;32330;51.936;7.184;2022-09-16T14:54:58;18.00;90.50
46608;DHT22;32330;51.936;7.184;2022-09-16T14:57:25;18.20;91.50
46608;DHT22;32330;51.936;7.184;2022-09-16T14:59:53;18.40;91.30
46608;DHT22;32330;51.936;7.184;2022-09-16T15:04:49;18.20;89.10
46608;DHT22;32330;51.936;7.184;2022-09-16T15:07:23;18.00;89.10
46608;DHT22;32330;51.936;7.184;2022-09-16T15:10:02;17.70;89.50
46608;DHT22;32330;51.936;7.184;2022-09-16T15:12:32;17.40;90.60
46608;DHT22;32330;51.936;7.184;2022-09-16T15:15:09;17.50;90.50
46608;DHT22;32330;51.936;7.184;2022-09-16T15:17:39;17.70;90.80
46608;DHT22;32330;51.936;7.184;2022-09-16T15:20:17;17.70;90.80
46608;DHT22;32330;51.936;7.184;2022-09-16T15:22:44;17.80;90.60
46608;DHT22;32330;51.936;7.184;2022-09-16T15:25:29;17.70;91.80
46608;DHT22;32330;51.936;7.184;2022-09-16T15:28:05;17.50;91.30
46608;DHT22;32330;51.936;7.184;2022-09-16T15:30:32;17.30;92.50
46608;DHT22;32330;51.936;7.184;2022-09-16T15:32:58;17.30;93.70
46608;DHT22;32330;51.936;7.184;2022-09-16T15:35:28;17.50;92.50
46608;DHT22;32330;51.936;7.184;2022-09-16T15:38:12;17.50;93.30
46608;DHT22;32330;51.936;7.184;2022-09-16T15:40:38;17.70;94.00
46608;DHT22;32330;51.936;7.184;2022-09-16T15:43:26;17.60;93.40
46608;DHT22;32330;51.936;7.184;2022-09-16T15:45:59;17.70;93.20
46608;DHT22;32330;51.936;7.184;2022-09-16T15:48:29;17.80;93.50
46608;DHT22;32330;51.936;7.184;2022-09-16T15:51:05;18.00;93.50
46608;DHT22;32330;51.936;7.184;2022-09-16T15:53:33;17.80;93.00
46608;DHT22;32330;51.936;7.184;2022-09-16T15:56:06;17.50;91.90
46608;DHT22;32330;51.936;7.184;2022-09-16T15:58:41;17.40;92.00
46608;DHT22;32330;51.936;7.184;2022-09-16T16:01:21;17.30;91.20
46608;DHT22;32330;51.936;7.184;2022-09-16T16:04:00;17.20;91.30
46608;DHT22;32330;51.936;7.184;2022-09-16T16:06:51;17.20;91.40
46608;DHT22;32330;51.936;7.184;2022-09-16T16:11:53;17.10;92.00
46608;DHT22;32330;51.936;7.184;2022-09-16T16:14:18;17.20;92.00
46608;DHT22;32330;51.936;7.184;2022-09-16T16:16:44;17.00;91.70
46608;DHT22;32330;51.936;7.184;2022-09-16T16:19:10;16.90;92.10
46608;DHT22;32330;51.936;7.184;2022-09-16T16:21:39;16.90;92.20
46608;DHT22;32330;51.936;7.184;2022-09-16T16:24:08;16.90;91.60
46608;DHT22;32330;51.936;7.184;2022-09-16T16:26:34;16.80;91.90
46608;DHT22;32330;51.936;7.184;2022-09-16T16:29:00;16.90;92.30
46608;DHT22;32330;51.936;7.184;2022-09-16T16:31:25;17.00;92.30
46608;DHT22;32330;51.936;7.184;2022-09-16T16:33:51;17.10;92.20
46608;DHT22;32330;51.936;7.184;2022-09-16T16:36:17;16.90;92.50
46608;DHT22;32330;51.936;7.184;2022-09-16T16:38:43;16.80;92.60
46608;DHT22;32330;51.936;7.184;2022-09-16T16:41:10;16.70;93.10
46608;DHT22;32330;51.936;7.184;2022-09-16T16:43:37;16.60;93.30
46608;DHT22;32330;51.936;7.184;2022-09-16T16:46:02;16.60;93.10
46608;DHT22;32330;51.936;7.184;2022-09-16T16:48:29;16.40;93.10
46608;DHT22;32330;51.936;7.184;2022-09-16T16:50:59;16.40;94.10
46608;DHT22;32330;51.936;7.184;2022-09-16T16:53:26;16.30;93.60
46608;DHT22;32330;51.936;7.184;2022-09-16T16:55:52;16.30;94.00
46608;DHT22;32330;51.936;7.184;2022-09-16T16:58:18;16.20;93.50
46608;DHT22;32330;51.936;7.184;2022-09-16T17:00:43;16.10;94.10
46608;DHT22;32330;51.936;7.184;2022-09-16T17:03:09;16.00;94.80
46608;DHT22;32330;51.936;7.184;2022-09-16T17:05:35;15.90;94.70
46608;DHT22;32330;51.936;7.184;2022-09-16T17:08:01;15.90;94.80
46608;DHT22;32330;51.936;7.184;2022-09-16T17:10:26;15.70;95.50
46608;DHT22;32330;51.936;7.184;2022-09-16T17:12:52;15.80;95.90
46608;DHT22;32330;51.936;7.184;2022-09-16T17:15:18;15.70;95.80
46608;DHT22;32330;51.936;7.184;2022-09-16T17:17:44;15.70;96.30
46608;DHT22;32330;51.936;7.184;2022-09-16T17:20:10;15.60;96.60
46608;DHT22;32330;51.936;7.184;2022-09-16T17:22:35;15.60;97.00
46608;DHT22;32330;51.936;7.184;2022-09-16T17:25:01;15.60;96.80
46608;DHT22;32330;51.936;7.184;2022-09-16T17:27:26;15.40;97.30
46608;DHT22;32330;51.936;7.184;2022-09-16T17:29:52;15.40;97.60
46608;DHT22;32330;51.936;7.184;2022-09-16T17:32:18;15.40;98.20
46608;DHT22;32330;51.936;7.184;2022-09-16T17:34:44;15.30;98.20
46608;DHT22;32330;51.936;7.184;2022-09-16T17:37:09;15.20;98.50
46608;DHT22;32330;51.936;7.184;2022-09-16T17:39:35;15.20;99.00
46608;DHT22;32330;51.936;7.184;2022-09-16T17:42:02;15.20;99.00
46608;DHT22;32330;51.936;7.184;2022-09-16T17:44:28;15.20;99.10
46608;DHT22;32330;51.936;7.184;2022-09-16T17:46:54;15.20;99.40
46608;DHT22;32330;51.936;7.184;2022-09-16T17:49:22;15.10;99.60
46608;DHT22;32330;51.936;7.184;2022-09-16T17:51:48;15.10;99.20
46608;DHT22;32330;51.936;7.184;2022-09-16T17:54:14;15.00;99.20
46608;DHT22;32330;51.936;7.184;2022-09-16T17:56:41;15.00;99.20
46608;DHT22;32330;51.936;7.184;2022-09-16T17:59:07;14.90;99.20
46608;DHT22;32330;51.936;7.184;2022-09-16T18:01:33;14.90;99.30
46608;DHT22;32330;51.936;7.184;2022-09-16T18:03:59;14.90;99.30
46608;DHT22;32330;51.936;7.184;2022-09-16T18:06:38;14.80;99.40
46608;DHT22;32330;51.936;7.184;2022-09-16T18:09:05;14.80;99.20
46608;DHT22;32330;51.936;7.184;2022-09-16T18:11:34;14.80;99.10
46608;DHT22;32330;51.936;7.184;2022-09-16T18:14:01;14.80;99.00
46608;DHT22;32330;51.936;7.184;2022-09-16T18:16:28;14.70;99.30
46608;DHT22;32330;51.936;7.184;2022-09-16T18:18:56;14.70;99.30
46608;DHT22;32330;51.936;7.184;2022-09-16T18:21:22;14.70;99.70
46608;DHT22;32330;51.936;7.184;2022-09-16T18:23:53;14.60;99.90
46608;DHT22;32330;51.936;7.184;2022-09-16T18:26:19;14.60;99.90
46608;DHT22;32330;51.936;7.184;2022-09-16T18:28:47;14.60;99.90
46608;DHT22;32330;51.936;7.184;2022-09-16T18:31:18;14.50;99.90
46608;DHT22;32330;51.936;7.184;2022-09-16T18:33:44;14.50;99.90
46608;DHT22;32330;51.936;7.184;2022-09-16T18:36:12;14.50;99.90
46608;DHT22;32330;51.936;7.184;2022-09-16T18:38:39;14.40;99.90
46608;DHT22;32330;51.936;7.184;2022-09-16T18:41:07;14.40;99.90
46608;DHT22;32330;51.936;7.184;2022-09-16T18:43:35;14.30;99.90
46608;DHT22;32330;51.936;7.184;2022-09-16T18:46:19;14.30;99.90
46608;DHT22;32330;51.936;7.184;2022-09-16T18:48:46;14.30;99.90